Time;durP1;ratioP1;P1;durP2;ratioP2;P2;SDS_P1;SDS_P2;PMS_P1;PMS_P2;Temp;Humidity;BMP_temperature;BMP_pressure;BME280_temperature;BME280_humidity;BME280_pressure;Samples;Min_cycle;Max_cycle;Signal;HPM_P1;HPM_P2
2022/10/02 00:00:23;;;;;;;1.53;1.27;;;10.60;94.80;;;;;;4984042;28;20200;-64
2022/10/02 00:02:59;;;;;;;3.47;1.33;;;10.70;95.00;;;;;;4977028;28;20235;-64
2022/10/02 00:05:34;;;;;;;1.57;1.43;;;10.60;95.00;;;;;;4984937;28;20188;-64
2022/10/02 00:08:06;;;;;;;3.60;1.70;;;10.60;95.00;;;;;;4987168;28;20212;-64
2022/10/02 00:10:49;;;;;;;4.10;1.57;;;10.70;95.40;;;;;;5019274;28;20204;-64
2022/10/02 00:13:24;;;;;;;2.17;1.40;;;10.70;95.40;;;;;;4996311;28;20200;-64
2022/10/02 00:15:51;;;;;;;3.07;1.43;;;10.70;95.20;;;;;;5003336;28;20207;-64
2022/10/02 00:18:27;;;;;;;2.83;1.50;;;10.80;95.30;;;;;;4986752;28;20251;-64
2022/10/02 00:21:01;;;;;;;1.33;0.97;;;10.70;95.10;;;;;;4980036;28;20195;-64
2022/10/02 00:23:40;;;;;;;1.40;1.10;;;10.70;94.80;;;;;;4976170;28;20243;-64
2022/10/02 00:26:29;;;;;;;2.50;1.07;;;10.70;95.10;;;;;;4980253;28;20195;-64
2022/10/02 00:29:19;;;;;;;3.00;1.33;;;10.70;95.10;;;;;;4987200;28;20196;-64
2022/10/02 00:31:44;;;;;;;5.17;1.03;;;10.70;95.30;;;;;;5008260;28;20275;-64
2022/10/02 00:34:32;;;;;;;3.03;0.90;;;10.70;95.10;;;;;;5018016;28;20196;-64
2022/10/02 00:37:22;;;;;;;2.57;1.30;;;10.70;95.20;;;;;;4994881;28;20208;-64
2022/10/02 00:40:09;;;;;;;4.03;1.00;;;10.60;95.10;;;;;;5017932;28;20211;-64
2022/10/02 00:43:01;;;;;;;2.77;0.97;;;10.60;95.20;;;;;;5014467;28;20206;-64
2022/10/02 00:45:54;;;;;;;2.97;1.50;;;10.70;95.30;;;;;;5021372;28;20212;-64
2022/10/02 00:48:38;;;;;;;3.60;1.37;;;10.70;95.30;;;;;;5006139;28;20264;-64
2022/10/02 00:51:34;;;;;;;8.33;1.23;;;10.60;94.80;;;;;;5006358;28;20196;-64
2022/10/02 00:54:24;;;;;;;3.60;1.10;;;10.50;93.80;;;;;;4975058;28;20197;-64
2022/10/02 00:56:56;;;;;;;3.17;1.00;;;10.50;94.40;;;;;;4982924;28;20285;-64
2022/10/02 00:59:40;;;;;;;2.60;1.07;;;10.50;94.20;;;;;;5008115;28;20565;-64
2022/10/02 01:02:11;;;;;;;2.67;0.87;;;10.50;94.30;;;;;;5022319;28;20196;-64
2022/10/02 01:04:38;;;;;;;3.67;1.00;;;10.60;94.90;;;;;;4990889;28;20222;-64
2022/10/02 01:07:07;;;;;;;5.67;1.00;;;10.50;94.40;;;;;;4973032;28;20189;-64
2022/10/02 01:09:33;;;;;;;1.07;0.93;;;10.60;94.70;;;;;;4987054;28;20234;-64
2022/10/02 01:12:00;;;;;;;3.70;0.77;;;10.70;94.80;;;;;;4978293;28;20198;-64
2022/10/02 01:14:33;;;;;;;1.90;1.00;;;10.60;94.30;;;;;;4984741;28;20185;-64
2022/10/02 01:16:59;;;;;;;1.37;0.80;;;10.70;94.10;;;;;;4979181;28;20216;-64
2022/10/02 01:19:38;;;;;;;3.67;0.93;;;10.70;94.60;;;;;;4990094;28;20193;-65
2022/10/02 01:22:12;;;;;;;1.00;0.70;;;10.80;94.90;;;;;;4990702;28;20215;-64
2022/10/02 01:24:52;;;;;;;2.07;1.17;;;10.70;93.60;;;;;;4974615;28;20239;-64
2022/10/02 01:27:17;;;;;;;1.50;1.00;;;10.70;94.30;;;;;;4997355;28;20199;-64
2022/10/02 01:29:46;;;;;;;4.13;1.00;;;10.70;93.60;;;;;;4982495;28;20197;-64
2022/10/02 01:32:12;;;;;;;2.17;0.90;;;10.60;93.80;;;;;;4992006;28;20208;-64
2022/10/02 01:34:38;;;;;;;1.07;0.87;;;10.60;94.00;;;;;;4973192;28;20205;-63
2022/10/02 01:37:05;;;;;;;1.07;0.80;;;10.50;94.50;;;;;;4974798;28;20196;-64
2022/10/02 01:39:31;;;;;;;2.10;0.67;;;10.60;94.40;;;;;;4976865;28;20222;-64
2022/10/02 01:41:57;;;;;;;1.67;0.70;;;10.60;94.20;;;;;;4974522;28;20199;-64
2022/10/02 01:44:24;;;;;;;3.77;0.90;;;10.50;94.30;;;;;;5009090;28;20184;-63
2022/10/02 01:47:01;;;;;;;1.93;0.80;;;10.50;94.50;;;;;;4972557;28;20192;-64
2022/10/02 01:49:48;;;;;;;3.23;0.97;;;10.50;94.50;;;;;;5000826;28;20188;-64
2022/10/02 01:52:29;;;;;;;0.80;0.73;;;10.50;94.70;;;;;;5006342;28;20193;-64
2022/10/02 01:55:20;;;;;;;0.60;0.60;;;10.50;94.70;;;;;;5009952;28;20219;-64
2022/10/02 01:58:13;;;;;;;2.90;1.13;;;10.50;94.70;;;;;;5016751;28;20213;-64
2022/10/02 02:01:00;;;;;;;1.67;0.70;;;10.40;94.50;;;;;;4978559;28;20279;-64
2022/10/02 02:03:53;;;;;;;4.33;0.80;;;10.40;94.60;;;;;;4978393;28;20193;-64
2022/10/02 02:06:44;;;;;;;3.80;0.90;;;10.40;94.70;;;;;;5008812;28;20208;-64
2022/10/02 02:09:36;;;;;;;4.57;0.93;;;10.40;94.50;;;;;;5018897;28;20196;-64
2022/10/02 02:12:10;;;;;;;0.87;0.60;;;10.40;94.30;;;;;;4989807;28;20192;-64
2022/10/02 02:14:46;;;;;;;2.30;0.77;;;10.30;94.20;;;;;;5023101;28;20233;-64
2022/10/02 02:17:18;;;;;;;1.50;0.63;;;10.30;93.70;;;;;;4985677;28;20200;-64
2022/10/02 02:19:47;;;;;;;2.40;0.83;;;10.30;94.30;;;;;;5018797;28;20185;-64
2022/10/02 02:22:23;;;;;;;1.23;1.03;;;10.30;94.70;;;;;;4995152;28;20188;-64
2022/10/02 02:24:59;;;;;;;2.33;1.10;;;10.30;94.60;;;;;;4988807;28;20234;-64
2022/10/02 02:27:29;;;;;;;3.13;0.83;;;10.30;94.40;;;;;;5018170;28;20188;-64
2022/10/02 02:30:01;;;;;;;4.10;0.80;;;10.20;94.20;;;;;;4991163;28;20180;-65
2022/10/02 02:32:31;;;;;;;2.70;0.97;;;10.20;94.20;;;;;;4991967;28;20181;-64
2022/10/02 02:35:06;;;;;;;2.97;0.70;;;10.30;94.30;;;;;;4994948;28;20280;-64
2022/10/02 02:37:35;;;;;;;0.80;0.80;;;10.30;94.40;;;;;;4985978;28;20263;-64
2022/10/02 02:40:06;;;;;;;2.80;0.90;;;10.30;94.40;;;;;;4984839;28;20184;-63
2022/10/02 02:42:40;;;;;;;2.07;0.70;;;10.20;94.30;;;;;;4993155;28;20211;-64
2022/10/02 02:45:12;;;;;;;2.83;0.90;;;10.20;94.40;;;;;;4997514;28;20311;-64
2022/10/02 02:48:04;;;;;;;3.23;0.80;;;10.20;94.30;;;;;;5019578;28;20181;-64
2022/10/02 02:50:39;;;;;;;0.90;0.60;;;10.20;94.30;;;;;;4997546;28;20261;-64
2022/10/02 02:53:11;;;;;;;1.93;0.80;;;10.20;94.30;;;;;;4993863;28;20261;-63
2022/10/02 02:55:45;;;;;;;0.83;0.70;;;10.30;94.60;;;;;;5021573;28;20193;-64
2022/10/02 02:58:26;;;;;;;1.00;0.50;;;10.30;94.60;;;;;;4991100;28;20208;-63
2022/10/02 03:00:51;;;;;;;0.97;0.70;;;10.30;94.60;;;;;;4992151;28;20187;-64
2022/10/02 03:03:17;;;;;;;0.80;0.80;;;10.30;94.60;;;;;;4982608;28;20189;-64
2022/10/02 03:05:48;;;;;;;1.10;1.00;;;10.30;94.60;;;;;;5016079;28;20266;-64
2022/10/02 03:08:36;;;;;;;2.43;0.87;;;10.40;94.70;;;;;;4988100;28;20188;-64
2022/10/02 03:11:23;;;;;;;0.77;0.70;;;10.40;94.70;;;;;;5014009;28;20193;-63
2022/10/02 03:13:57;;;;;;;0.87;0.60;;;10.30;94.10;;;;;;4984425;28;20258;-64
2022/10/02 03:16:41;;;;;;;3.47;0.90;;;10.30;94.30;;;;;;4995678;28;20298;-64
2022/10/02 03:19:24;;;;;;;1.50;1.00;;;10.30;94.40;;;;;;5015937;28;20220;-63
2022/10/02 03:22:25;;;;;;;0.83;0.70;;;10.30;94.40;;;;;;5013578;28;20180;-64
2022/10/02 03:24:50;;;;;;;2.30;0.87;;;10.30;94.20;;;;;;5006593;28;20352;-63
2022/10/02 03:27:27;;;;;;;2.50;0.50;;;10.20;94.50;;;;;;5022771;28;20260;-64
2022/10/02 03:29:59;;;;;;;1.80;1.13;;;10.10;93.50;;;;;;5012731;28;20208;-64
2022/10/02 03:32:26;;;;;;;12.47;1.27;;;10.20;94.10;;;;;;4987516;28;20196;-64
2022/10/02 03:34:52;;;;;;;2.77;0.70;;;10.20;94.10;;;;;;5006717;28;20235;-64
2022/10/02 03:37:18;;;;;;;2.17;1.00;;;10.20;94.10;;;;;;4983468;28;20320;-64
2022/10/02 03:39:45;;;;;;;2.40;0.80;;;10.20;94.30;;;;;;5014231;28;20219;-63
2022/10/02 03:42:12;;;;;;;0.83;0.60;;;10.10;93.70;;;;;;4981925;28;20262;-63
2022/10/02 03:44:38;;;;;;;4.57;0.80;;;9.90;92.80;;;;;;4974774;28;20185;-63
2022/10/02 03:47:04;;;;;;;3.23;1.03;;;10.00;93.70;;;;;;4986696;28;20439;-63
2022/10/02 03:49:30;;;;;;;0.93;0.70;;;10.00;93.90;;;;;;4976025;28;20200;-63
2022/10/02 03:51:55;;;;;;;1.17;0.80;;;10.00;94.00;;;;;;4978197;28;20267;-64
2022/10/02 03:54:21;;;;;;;3.13;1.00;;;10.10;94.40;;;;;;4977469;28;20196;-63
2022/10/02 03:57:00;;;;;;;3.50;0.80;;;10.10;94.40;;;;;;5004815;28;20207;-63
2022/10/02 03:59:31;;;;;;;1.90;1.00;;;10.20;94.40;;;;;;4987439;28;20185;-63
2022/10/02 04:02:00;;;;;;;2.30;0.67;;;10.10;94.30;;;;;;4990331;28;20188;-64
2022/10/02 04:04:37;;;;;;;0.97;0.70;;;10.10;94.30;;;;;;4989785;28;20189;-63
2022/10/02 04:07:10;;;;;;;1.50;0.70;;;10.00;93.80;;;;;;4987360;28;20188;-63
2022/10/02 04:10:22;;;;;;;1.00;0.90;;;10.00;94.10;;;;;;4987646;28;20189;-63
2022/10/02 04:12:52;;;;;;;2.50;0.93;;;10.00;94.20;;;;;;4979948;28;20192;-63
2022/10/02 04:15:27;;;;;;;1.70;0.93;;;10.00;94.10;;;;;;4988427;28;20219;-63
2022/10/02 04:18:00;;;;;;;1.60;0.80;;;10.00;94.20;;;;;;4992096;28;20207;-63
2022/10/02 04:20:42;;;;;;;2.70;0.80;;;10.00;94.30;;;;;;4978887;28;20196;-62
2022/10/02 04:23:28;;;;;;;0.80;0.80;;;9.90;94.30;;;;;;4987926;28;20192;-63
2022/10/02 04:26:03;;;;;;;1.27;1.07;;;9.90;94.50;;;;;;4983998;28;20219;-63
2022/10/02 04:28:38;;;;;;;1.57;0.70;;;9.90;94.40;;;;;;4973373;28;20260;-63
2022/10/02 04:31:12;;;;;;;1.60;0.90;;;9.80;93.70;;;;;;4974826;28;20651;-63
2022/10/02 04:33:38;;;;;;;4.43;1.00;;;9.80;93.90;;;;;;4974741;28;20192;-63
2022/10/02 04:36:28;;;;;;;2.07;0.70;;;9.80;94.00;;;;;;5004658;28;20265;-63
2022/10/02 04:39:16;;;;;;;0.90;0.80;;;9.80;93.50;;;;;;4972726;28;20468;-63
2022/10/02 04:42:26;;;;;;;3.27;0.97;;;9.80;94.00;;;;;;5014674;28;20278;-63
2022/10/02 04:45:13;;;;;;;1.83;0.90;;;9.80;94.00;;;;;;4985537;28;20193;-63
2022/10/02 04:48:00;;;;;;;3.53;0.97;;;9.80;93.90;;;;;;4988474;28;20200;-64
2022/10/02 04:51:01;;;;;;;2.20;0.60;;;9.70;94.00;;;;;;4992870;28;20493;-63
2022/10/02 04:53:57;;;;;;;1.73;1.10;;;9.80;94.30;;;;;;4975489;28;20467;-63
2022/10/02 04:56:55;;;;;;;0.80;0.80;;;9.80;94.20;;;;;;4990103;28;20260;-63
2022/10/02 04:59:27;;;;;;;1.17;1.00;;;9.80;94.50;;;;;;5012566;28;20225;-64
2022/10/02 05:01:55;;;;;;;1.73;0.87;;;9.80;94.20;;;;;;5006726;28;20548;-63
2022/10/02 05:04:33;;;;;;;1.30;1.17;;;9.80;94.10;;;;;;5019139;28;20181;-63
2022/10/02 05:07:35;;;;;;;0.70;0.60;;;9.80;94.10;;;;;;5005793;28;20189;-64
2022/10/02 05:10:19;;;;;;;2.13;1.67;;;9.80;94.20;;;;;;5017979;28;20191;-64
2022/10/02 05:13:21;;;;;;;3.67;0.80;;;9.70;94.00;;;;;;4988125;28;20185;-64
2022/10/02 05:16:27;;;;;;;2.27;0.70;;;9.70;94.00;;;;;;5011387;28;20431;-63
2022/10/02 05:19:11;;;;;;;4.70;1.60;;;9.70;93.90;;;;;;5010332;28;20208;-63
2022/10/02 05:21:43;;;;;;;3.10;1.87;;;9.50;93.60;;;;;;5023323;28;20279;-64
2022/10/02 05:24:45;;;;;;;4.33;2.00;;;9.50;93.60;;;;;;5019361;28;20446;-64
2022/10/02 05:27:45;;;;;;;5.37;2.27;;;9.60;94.10;;;;;;4984674;28;20435;-63
2022/10/02 05:30:16;;;;;;;2.10;1.47;;;9.50;93.90;;;;;;5022874;28;20423;-63
2022/10/02 05:33:19;;;;;;;4.37;1.97;;;9.50;94.00;;;;;;4981838;28;20423;-63
2022/10/02 05:36:36;;;;;;;2.50;1.47;;;9.50;94.20;;;;;;5015322;28;20236;-63
2022/10/02 05:39:06;;;;;;;4.13;1.60;;;9.60;94.30;;;;;;4980393;28;20488;-64
2022/10/02 05:42:09;;;;;;;1.53;1.30;;;9.60;94.20;;;;;;5010784;28;20538;-63
2022/10/02 05:44:39;;;;;;;1.30;1.20;;;9.50;94.00;;;;;;5011833;28;20527;-63
2022/10/02 05:47:34;;;;;;;1.73;1.37;;;9.50;94.30;;;;;;4987758;28;20432;-63
2022/10/02 05:50:12;;;;;;;2.20;0.90;;;9.60;94.50;;;;;;4974724;28;20196;-64
2022/10/02 05:52:54;;;;;;;1.67;1.00;;;9.60;94.40;;;;;;4974271;28;20195;-63
2022/10/02 05:55:28;;;;;;;2.20;0.80;;;9.70;94.50;;;;;;5016928;28;20446;-63
2022/10/02 05:58:02;;;;;;;1.57;1.00;;;9.60;94.10;;;;;;5005812;28;20200;-64
2022/10/02 06:00:34;;;;;;;3.33;1.20;;;9.50;94.40;;;;;;4988547;28;20438;-63
2022/10/02 06:03:18;;;;;;;2.47;0.77;;;9.30;93.60;;;;;;4989018;28;20463;-64
2022/10/02 06:05:56;;;;;;;2.20;0.70;;;9.40;94.40;;;;;;4977098;28;20447;-64
2022/10/02 06:08:35;;;;;;;4.33;0.90;;;9.50;94.60;;;;;;4978741;28;20197;-64
2022/10/02 06:11:14;;;;;;;1.10;0.50;;;9.60;94.70;;;;;;4973136;28;20204;-64
2022/10/02 06:13:46;;;;;;;3.37;0.87;;;9.70;94.90;;;;;;4986948;28;20534;-64
2022/10/02 06:16:40;;;;;;;3.13;0.43;;;9.70;94.90;;;;;;4989724;28;20280;-63
2022/10/02 06:19:34;;;;;;;1.43;1.20;;;9.80;94.80;;;;;;4986835;28;20205;-63
2022/10/02 06:22:13;;;;;;;5.77;3.87;;;9.80;94.90;;;;;;4984238;28;20251;-64
2022/10/02 06:24:48;;;;;;;10.53;5.90;;;9.80;94.70;;;;;;4982185;28;20443;-64
2022/10/02 06:27:36;;;;;;;8.40;5.23;;;9.80;94.60;;;;;;5012926;28;20271;-63
2022/10/02 06:30:13;;;;;;;6.40;5.37;;;9.90;94.50;;;;;;4974248;28;20221;-63
2022/10/02 06:32:52;;;;;;;6.47;3.83;;;10.00;94.60;;;;;;4981794;28;20435;-63
2022/10/02 06:35:46;;;;;;;3.93;3.20;;;10.00;94.50;;;;;;4981580;28;20239;-63
2022/10/02 06:38:21;;;;;;;4.00;2.57;;;10.10;94.90;;;;;;4975319;28;20467;-64
2022/10/02 06:41:19;;;;;;;5.90;2.83;;;10.20;94.80;;;;;;4985253;28;20187;-64
2022/10/02 06:44:15;;;;;;;6.67;2.90;;;10.30;94.70;;;;;;4993181;28;20185;-64
2022/10/02 06:46:52;;;;;;;4.17;2.73;;;10.30;94.70;;;;;;5004700;28;20190;-64
2022/10/02 06:49:45;;;;;;;8.60;3.20;;;10.50;94.90;;;;;;4990008;28;20191;-63
2022/10/02 06:52:16;;;;;;;4.33;3.40;;;10.60;95.00;;;;;;4989025;28;20199;-63
2022/10/02 06:55:03;;;;;;;4.60;3.63;;;10.70;95.00;;;;;;5026164;28;20279;-63
2022/10/02 06:57:41;;;;;;;4.53;3.10;;;10.70;95.10;;;;;;5025119;28;20216;-63
2022/10/02 07:00:13;;;;;;;3.77;3.00;;;10.80;95.10;;;;;;5009941;28;20193;-64
2022/10/02 07:03:15;;;;;;;2.20;2.00;;;10.90;95.20;;;;;;4982504;28;20425;-64
2022/10/02 07:06:05;;;;;;;4.30;2.70;;;11.00;95.20;;;;;;4979974;28;20203;-64
2022/10/02 07:08:50;;;;;;;2.70;2.47;;;11.10;95.10;;;;;;5018445;28;20193;-64
2022/10/02 07:11:27;;;;;;;3.63;2.50;;;11.10;95.20;;;;;;4984207;28;20188;-64
2022/10/02 07:14:01;;;;;;;3.83;1.97;;;11.20;95.10;;;;;;4992820;28;20223;-64
2022/10/02 07:16:46;;;;;;;3.37;1.87;;;11.20;94.50;;;;;;5013398;28;20188;-64
2022/10/02 07:19:24;;;;;;;2.83;1.70;;;11.20;94.40;;;;;;5007018;28;20213;-64
2022/10/02 07:22:39;;;;;;;2.53;1.70;;;11.30;94.60;;;;;;5022784;28;20193;-64
2022/10/02 07:25:23;;;;;;;2.07;1.27;;;11.30;94.50;;;;;;4992750;28;20276;-63
2022/10/02 07:28:18;;;;;;;2.97;1.90;;;11.40;94.60;;;;;;4995206;28;20192;-63
2022/10/02 07:31:08;;;;;;;3.17;1.60;;;11.50;94.70;;;;;;4982184;28;20196;-64
2022/10/02 07:33:41;;;;;;;2.47;1.60;;;11.60;94.80;;;;;;4994439;28;20192;-63
2022/10/02 07:36:21;;;;;;;2.47;1.60;;;11.70;94.80;;;;;;5021476;28;20235;-64
2022/10/02 07:39:02;;;;;;;1.57;1.47;;;11.80;94.70;;;;;;5024597;28;20211;-63
2022/10/02 07:41:56;;;;;;;2.67;1.80;;;11.80;94.80;;;;;;5015254;28;20183;-62
2022/10/02 07:44:51;;;;;;;2.33;1.70;;;11.90;95.00;;;;;;4991368;28;20193;-63
2022/10/02 07:47:42;;;;;;;1.67;1.50;;;12.00;95.10;;;;;;4985556;28;20251;-64
2022/10/02 07:50:31;;;;;;;1.67;1.30;;;12.00;95.00;;;;;;5019635;28;20248;-64
2022/10/02 07:53:24;;;;;;;1.50;1.40;;;12.10;95.00;;;;;;5014636;28;20191;-63
2022/10/02 07:55:54;;;;;;;2.67;1.37;;;12.10;95.00;;;;;;4991270;28;20181;-63
2022/10/02 07:58:32;;;;;;;1.80;1.50;;;12.10;95.00;;;;;;4983729;28;20204;-64
2022/10/02 08:01:07;;;;;;;2.53;1.63;;;12.10;95.00;;;;;;5019048;28;20209;-64
2022/10/02 08:03:48;;;;;;;2.70;1.60;;;12.00;94.60;;;;;;4991710;28;20194;-63
2022/10/02 08:06:16;;;;;;;2.13;1.73;;;12.00;94.40;;;;;;5006233;28;20201;-63
2022/10/02 08:08:44;;;;;;;2.10;1.70;;;12.00;94.50;;;;;;5010254;28;20298;-63
2022/10/02 08:11:20;;;;;;;3.93;2.00;;;12.00;94.40;;;;;;5017657;28;20192;-63
2022/10/02 08:13:54;;;;;;;2.20;1.80;;;12.10;94.60;;;;;;4992507;28;20182;-64
2022/10/02 08:16:25;;;;;;;2.00;1.80;;;12.00;94.60;;;;;;4983851;28;20177;-63
2022/10/02 08:19:10;;;;;;;2.00;1.53;;;12.10;94.30;;;;;;5023938;28;20219;-63
2022/10/02 08:21:41;;;;;;;2.00;1.67;;;12.10;93.30;;;;;;4981199;28;20241;-63
2022/10/02 08:24:14;;;;;;;3.53;1.90;;;12.20;93.90;;;;;;4982112;28;20196;-64
2022/10/02 08:27:07;;;;;;;2.03;1.50;;;12.30;93.70;;;;;;4991926;28;20230;-64
2022/10/02 08:29:41;;;;;;;1.30;1.10;;;12.30;94.20;;;;;;4991157;28;20219;-64
2022/10/02 08:32:11;;;;;;;1.77;1.30;;;12.40;94.10;;;;;;4978584;28;20178;-64
2022/10/02 08:34:37;;;;;;;1.40;1.27;;;12.50;94.40;;;;;;4976601;28;20208;-63
2022/10/02 08:37:37;;;;;;;1.00;0.90;;;12.60;94.60;;;;;;4991453;28;20181;-64
2022/10/02 08:40:15;;;;;;;1.90;0.80;;;12.60;94.60;;;;;;5005977;28;20193;-63
2022/10/02 08:42:53;;;;;;;3.37;1.00;;;12.70;94.70;;;;;;5022184;28;20185;-64
2022/10/02 08:46:05;;;;;;;0.73;0.53;;;12.70;94.70;;;;;;5024276;28;20188;-63
2022/10/02 08:48:53;;;;;;;0.73;0.60;;;12.80;94.40;;;;;;4982609;28;20216;-63
2022/10/02 08:51:22;;;;;;;2.93;1.00;;;12.80;93.20;;;;;;4976373;28;20181;-63
2022/10/02 08:54:14;;;;;;;1.73;0.60;;;12.90;93.60;;;;;;5006981;28;20193;-63
2022/10/02 08:56:49;;;;;;;0.70;0.60;;;13.00;93.70;;;;;;5010222;28;20190;-64
2022/10/02 08:59:59;;;;;;;1.47;0.60;;;13.20;94.00;;;;;;5005226;28;20278;-64
2022/10/02 09:02:31;;;;;;;1.67;0.80;;;13.30;92.50;;;;;;4994056;28;20192;-63
2022/10/02 09:05:19;;;;;;;0.60;0.60;;;13.50;92.50;;;;;;5011452;28;20193;-64
2022/10/02 09:08:15;;;;;;;3.33;0.70;;;13.70;93.30;;;;;;4989392;28;20185;-64
2022/10/02 09:11:11;;;;;;;1.70;0.57;;;13.80;93.20;;;;;;5023258;28;20181;-64
2022/10/02 09:13:42;;;;;;;0.50;0.50;;;14.00;92.50;;;;;;4995141;28;20182;-64
2022/10/02 09:16:22;;;;;;;1.53;0.73;;;14.00;91.10;;;;;;5010413;28;20303;-64
2022/10/02 09:19:09;;;;;;;0.60;0.60;;;14.20;88.20;;;;;;5021533;28;20212;-64
2022/10/02 09:21:38;;;;;;;2.10;0.70;;;14.30;88.60;;;;;;5001531;28;20232;-64
2022/10/02 09:24:32;;;;;;;0.47;0.40;;;14.50;82.70;;;;;;5015871;28;20204;-64
2022/10/02 09:27:19;;;;;;;2.30;0.67;;;14.50;83.10;;;;;;5017231;28;20191;-64
2022/10/02 09:29:51;;;;;;;1.53;0.60;;;14.60;84.10;;;;;;5018666;28;20194;-63
2022/10/02 09:32:34;;;;;;;1.50;0.53;;;14.60;85.50;;;;;;5015418;28;20193;-64
2022/10/02 09:35:34;;;;;;;1.40;0.60;;;14.70;86.70;;;;;;5024190;28;20228;-63
2022/10/02 09:38:38;;;;;;;3.60;0.60;;;14.70;88.00;;;;;;5023067;28;20244;-62
2022/10/02 09:41:32;;;;;;;0.40;0.40;;;14.80;88.40;;;;;;4986481;28;20232;-62
2022/10/02 09:44:19;;;;;;;1.77;0.80;;;14.80;86.20;;;;;;5018982;28;20185;-63
2022/10/02 09:46:51;;;;;;;0.53;0.50;;;14.80;86.70;;;;;;5013784;28;20182;-62
2022/10/02 09:49:51;;;;;;;0.80;0.80;;;14.80;87.50;;;;;;4979265;28;20267;-63
2022/10/02 09:52:40;;;;;;;0.60;0.60;;;14.80;88.50;;;;;;5022349;28;20189;-62
2022/10/02 09:55:43;;;;;;;1.80;0.93;;;14.90;90.00;;;;;;4986434;28;20263;-62
2022/10/02 09:58:27;;;;;;;1.33;0.73;;;15.00;90.30;;;;;;5014466;28;20200;-62
2022/10/02 10:01:11;;;;;;;0.60;0.60;;;15.00;88.90;;;;;;5021851;28;20176;-63
2022/10/02 10:04:17;;;;;;;1.47;0.97;;;15.00;90.10;;;;;;5020440;28;20276;-63
2022/10/02 10:07:32;;;;;;;1.07;0.57;;;15.10;90.70;;;;;;4982156;28;20192;-63
2022/10/02 10:10:37;;;;;;;2.50;0.60;;;15.10;91.40;;;;;;4992726;28;20243;-63
2022/10/02 10:13:36;;;;;;;1.60;0.47;;;15.20;91.50;;;;;;5006978;28;20196;-63
2022/10/02 10:16:29;;;;;;;2.83;0.70;;;15.20;91.40;;;;;;4979102;28;20181;-63
2022/10/02 10:19:03;;;;;;;1.37;0.60;;;15.30;91.40;;;;;;4976477;28;20283;-63
2022/10/02 10:21:50;;;;;;;5.83;0.90;;;15.30;91.70;;;;;;5015572;28;20210;-63
2022/10/02 10:24:38;;;;;;;1.07;0.90;;;15.30;91.80;;;;;;5011054;28;20305;-63
2022/10/02 10:27:27;;;;;;;1.70;0.90;;;15.30;91.70;;;;;;5016382;28;20188;-63
2022/10/02 10:30:12;;;;;;;0.67;0.67;;;15.30;91.60;;;;;;4993353;28;20181;-64
2022/10/02 10:33:12;;;;;;;1.13;0.77;;;15.40;91.90;;;;;;5011886;28;20188;-64
2022/10/02 10:35:51;;;;;;;1.03;0.83;;;15.40;92.00;;;;;;5019428;28;20240;-64
2022/10/02 10:38:51;;;;;;;0.90;0.70;;;15.40;91.60;;;;;;5010613;28;20279;-64
2022/10/02 10:41:31;;;;;;;0.90;0.70;;;15.40;91.70;;;;;;5000607;28;20186;-66
2022/10/02 10:44:17;;;;;;;2.57;0.87;;;15.40;92.10;;;;;;4999616;28;20180;-64
2022/10/02 10:46:49;;;;;;;1.10;0.80;;;15.40;92.30;;;;;;4997667;28;20188;-64
2022/10/02 10:49:34;;;;;;;0.63;0.63;;;15.40;92.60;;;;;;5023685;28;20278;-64
2022/10/02 10:52:12;;;;;;;3.00;0.70;;;15.40;92.60;;;;;;5015722;28;20185;-63
2022/10/02 10:55:03;;;;;;;1.73;1.20;;;15.30;91.50;;;;;;4984142;28;20181;-63
2022/10/02 10:57:58;;;;;;;1.70;1.10;;;15.30;88.70;;;;;;5029362;28;20227;-63
2022/10/02 11:00:37;;;;;;;0.90;0.90;;;15.30;87.90;;;;;;4987342;28;20223;-62
2022/10/02 11:03:25;;;;;;;1.37;1.27;;;15.20;86.30;;;;;;4984027;28;20192;-63
2022/10/02 11:06:21;;;;;;;3.03;1.20;;;15.10;84.00;;;;;;4980609;28;20228;-61
2022/10/02 11:09:08;;;;;;;1.70;1.30;;;15.10;86.40;;;;;;4989224;28;20184;-63
2022/10/02 11:11:45;;;;;;;3.10;1.20;;;15.10;88.40;;;;;;5019769;28;20189;-62
2022/10/02 11:14:48;;;;;;;2.03;1.20;;;15.00;89.10;;;;;;5020477;28;20192;-62
2022/10/02 11:17:53;;;;;;;2.47;1.30;;;15.10;90.10;;;;;;5022502;28;20188;-62
2022/10/02 11:20:41;;;;;;;2.27;1.20;;;15.00;89.30;;;;;;5017175;28;20180;-63
2022/10/02 11:23:11;;;;;;;3.57;1.40;;;15.00;88.10;;;;;;4993487;28;20193;-63
2022/10/02 11:25:45;;;;;;;2.27;1.50;;;15.00;89.80;;;;;;5015580;28;20611;-63
2022/10/02 11:28:57;;;;;;;1.27;1.10;;;14.90;88.60;;;;;;4990995;28;20197;-63
2022/10/02 11:31:52;;;;;;;4.13;1.33;;;15.00;90.10;;;;;;4980159;28;20263;-64
2022/10/02 11:34:43;;;;;;;1.37;1.03;;;15.00;89.60;;;;;;4982666;28;20239;-65
2022/10/02 11:37:24;;;;;;;2.00;1.70;;;15.00;88.80;;;;;;4985101;28;20225;-64
2022/10/02 11:40:13;;;;;;;1.53;1.43;;;15.00;90.10;;;;;;5018911;28;20191;-63
2022/10/02 11:43:12;;;;;;;2.23;1.43;;;15.00;90.60;;;;;;4990085;28;20198;-64
2022/10/02 11:45:58;;;;;;;3.93;1.30;;;15.10;91.40;;;;;;5024385;28;20184;-61
2022/10/02 11:49:06;;;;;;;2.60;1.50;;;15.00;91.20;;;;;;5019637;28;20196;-64
2022/10/02 11:52:07;;;;;;;1.40;1.00;;;15.10;91.80;;;;;;5007941;28;20281;-63
2022/10/02 11:55:14;;;;;;;3.37;1.37;;;15.10;91.60;;;;;;4989633;28;20254;-63
2022/10/02 11:58:13;;;;;;;1.10;1.00;;;15.10;91.60;;;;;;4998702;28;20228;-62
2022/10/02 12:01:11;;;;;;;1.13;1.03;;;15.20;92.00;;;;;;4987797;28;20265;-62
2022/10/02 12:04:01;;;;;;;1.17;0.90;;;15.30;91.60;;;;;;4985245;28;20209;-62
2022/10/02 12:06:35;;;;;;;1.27;1.17;;;15.30;91.80;;;;;;4981766;28;20188;-62
2022/10/02 12:09:39;;;;;;;1.77;1.20;;;15.20;91.80;;;;;;5020450;28;20235;-61
2022/10/02 12:12:34;;;;;;;1.03;0.93;;;15.30;92.20;;;;;;5014781;28;20216;-61
2022/10/02 12:15:14;;;;;;;1.93;1.50;;;15.30;92.60;;;;;;4989397;28;20197;-61
2022/10/02 12:17:52;;;;;;;1.97;1.60;;;15.30;92.70;;;;;;5015401;28;20310;-62
2022/10/02 12:26:58;;;;;;;2.63;1.43;;;15.40;92.60;;;;;;4976743;28;20217;-60
2022/10/02 12:29:24;;;;;;;3.47;1.27;;;15.40;93.20;;;;;;5013771;28;20255;-62
2022/10/02 12:31:59;;;;;;;3.20;2.30;;;15.50;93.40;;;;;;5021418;28;20193;-60
2022/10/02 12:35:00;;;;;;;3.47;2.43;;;15.60;93.20;;;;;;4990098;28;20197;-60
2022/10/02 12:37:35;;;;;;;6.00;1.90;;;15.60;90.90;;;;;;4972100;28;20211;-60
2022/10/02 12:40:36;;;;;;;4.47;1.30;;;15.70;92.10;;;;;;4975079;28;20188;-61
2022/10/02 12:43:17;;;;;;;1.80;1.30;;;15.70;92.30;;;;;;4969479;28;20192;-61
2022/10/02 12:45:43;;;;;;;1.80;1.10;;;15.70;91.40;;;;;;4989616;28;20192;-61
2022/10/02 12:48:41;;;;;;;2.37;1.40;;;15.70;91.90;;;;;;5015074;28;20189;-61
2022/10/02 12:51:28;;;;;;;1.30;1.10;;;15.60;91.90;;;;;;4982166;28;20173;-61
2022/10/02 12:54:25;;;;;;;2.30;1.27;;;15.60;92.80;;;;;;5015517;28;20215;-61
2022/10/02 12:57:09;;;;;;;1.87;0.90;;;15.60;91.40;;;;;;4983023;28;20201;-61
2022/10/02 12:59:39;;;;;;;2.10;1.00;;;15.60;91.50;;;;;;5024453;28;20196;-61
2022/10/02 13:02:27;;;;;;;2.37;1.17;;;15.50;90.60;;;;;;5014679;28;20244;-61
2022/10/02 13:05:35;;;;;;;1.87;1.30;;;15.50;91.40;;;;;;5015797;28;20272;-61
2022/10/02 13:08:30;;;;;;;2.87;1.77;;;15.50;92.60;;;;;;4982214;28;20296;-61
2022/10/02 13:11:09;;;;;;;2.97;2.20;;;15.60;93.20;;;;;;4993073;28;20203;-61
2022/10/02 13:13:59;;;;;;;1.50;1.40;;;15.60;93.10;;;;;;5021852;28;20203;-61
2022/10/02 13:16:35;;;;;;;3.43;3.13;;;15.60;92.40;;;;;;4981169;28;20189;-61
2022/10/02 13:19:18;;;;;;;3.07;1.90;;;15.70;92.40;;;;;;5012074;28;20216;-60
2022/10/02 13:22:02;;;;;;;2.20;1.27;;;15.80;91.70;;;;;;4990209;28;20199;-60
2022/10/02 13:25:09;;;;;;;7.23;5.70;;;15.80;89.80;;;;;;4984659;28;20188;-61
2022/10/02 13:27:51;;;;;;;3.00;1.97;;;15.80;90.40;;;;;;5006115;28;20188;-60
2022/10/02 13:30:19;;;;;;;4.10;1.50;;;15.70;85.50;;;;;;4978055;28;20229;-60
2022/10/02 13:32:51;;;;;;;4.20;3.03;;;15.70;88.70;;;;;;4977273;28;20185;-60
2022/10/02 13:35:26;;;;;;;3.00;1.70;;;15.70;90.10;;;;;;5011749;28;20278;-60
2022/10/02 13:38:24;;;;;;;6.33;2.20;;;15.70;90.80;;;;;;4985061;28;20215;-60
2022/10/02 13:41:14;;;;;;;4.50;1.97;;;15.70;90.90;;;;;;4994916;28;20197;-62
2022/10/02 13:44:00;;;;;;;9.30;4.60;;;15.60;91.20;;;;;;5018321;28;20225;-62
2022/10/02 13:46:31;;;;;;;5.80;2.10;;;15.70;90.40;;;;;;5010898;28;20181;-62
2022/10/02 13:49:16;;;;;;;1.53;1.30;;;16.00;89.90;;;;;;5018626;28;20189;-63
2022/10/02 13:52:23;;;;;;;1.70;1.50;;;16.80;88.30;;;;;;5006791;28;20221;-62
2022/10/02 13:55:11;;;;;;;3.23;1.27;;;17.90;86.40;;;;;;4974627;28;20224;-62
2022/10/02 13:58:01;;;;;;;3.13;1.30;;;18.60;76.60;;;;;;4990384;28;20192;-62
2022/10/02 14:00:36;;;;;;;3.77;1.20;;;19.70;78.50;;;;;;4984983;28;20193;-61
2022/10/02 14:03:14;;;;;;;1.93;1.23;;;20.20;69.70;;;;;;5018407;28;20195;-60
2022/10/02 14:05:51;;;;;;;1.43;1.13;;;20.80;71.50;;;;;;5020553;28;20249;-60
2022/10/02 14:08:42;;;;;;;2.97;1.50;;;21.20;69.60;;;;;;4989295;28;20231;-60
2022/10/02 14:11:07;;;;;;;2.20;1.10;;;21.50;62.70;;;;;;4991850;28;20266;-60
2022/10/02 14:13:45;;;;;;;1.33;1.23;;;21.20;63.10;;;;;;4992551;28;20192;-60